Dallas Center, IA (50063)

10:31 PM CST on December 19, 2014 (GMT -0600)
SBALDNERFARMS | Change Station
CLOSE
Current Station
Personal Weather Station
Location: Dallas Center, IA
Elevation: 1100 ft
Nearby Weather Stations

Elev 1100 ft 41.71 °N, 93.93 °W | Updated 4 minutes ago

Overcast
Overcast
30.9 °F
Feels Like 25 °F
N
6.0
Wind Variable Wind from SSW
Gusts 11.0 mph

Today
High -- | Low -- °F
--% Chance of Precip.
Yesterday
High -- | Low -- °F
Precip. -- in
7:38 AM 4:47 PM
Waning Crescent, 4% visible
Pressure 30.17 in
Visibility 7.0 miles
Clouds Overcast 800 ft
Windchill 25 °F
Dew Point 30 °F
Humidity 95%
Rainfall 0.00 in
Snow Depth Not available.
UV 0 out of 12
Pollen .10 out of 12
Air Quality Not available.
Flu Activity Not available.
METAR KPRO 200415Z AUTO 18011KT 7SM OVC008 00/M01 A3017 RMK AO2 T00001006

More Conditions Fewer Conditions

Pressure 30.17 in
Visibility 7.0 miles
Clouds Overcast 800 ft
Windchill 25 °F
Dew Point 30 °F
Humidity 95%
Rainfall 0.00 in
Snow Depth Not available.
UV 0 out of 12
Pollen .10 out of 12
Air Quality Not available.
Flu Activity Not available.
METAR KPRO 200415Z AUTO 18011KT 7SM OVC008 00/M01 A3017 RMK AO2 T00001006

More Conditions Fewer Conditions

10-Day Weather Forecast

Almanac

Astronomy

Dec. 19, 2014 Rise Set
Actual Time
Civil Twilight
Nautical Twilight
Astronomical Twilight
Moon
Length of Visible Light
Length of Day
Tomorrow will be .
, % of the Moon is Illuminated

Today's Extremes

State Highs State Lows

Community

WunderPhotos

Upload Photos

1,779,130 photos uploaded!

WunderBlogs® & News

Nearby

Air Quality

  Air Quality AQ Index Pollutant
Not available.

Snow Depth

Station Depth Elevation

Earthquake Activity

City Distance Mag. Time & Date
Minimum magnitude displayed is 2.5.

Coastal Water Temperatures

Place Temperature

Nearby Weather Stations